createdAt,value
2023-04-18T00:00:15.440Z,7.80
2023-04-18T00:02:18.459Z,7.70
2023-04-18T00:04:21.228Z,7.70
2023-04-18T00:06:25.456Z,7.70
2023-04-18T00:08:28.366Z,7.60
2023-04-18T00:10:30.907Z,7.60
2023-04-18T00:12:36.555Z,7.60
2023-04-18T00:14:41.325Z,7.50
2023-04-18T00:16:46.674Z,7.50
2023-04-18T00:18:52.074Z,7.50
2023-04-18T00:20:56.654Z,7.40
2023-04-18T00:23:00.303Z,7.40
2023-04-18T00:25:03.997Z,7.40
2023-04-18T00:27:08.262Z,7.40
2023-04-18T00:29:12.020Z,7.30
2023-04-18T00:31:17.682Z,7.30
2023-04-18T00:33:23.284Z,7.30
2023-04-18T00:35:29.875Z,7.20
2023-04-18T00:37:35.213Z,7.20
2023-04-18T00:39:39.855Z,7.20
2023-04-18T00:41:43.546Z,7.20
2023-04-18T00:46:04.302Z,7.10
2023-04-18T00:48:07.934Z,7.10
2023-04-18T00:50:11.843Z,7.10
2023-04-18T00:52:14.531Z,7.10
2023-04-18T00:56:32.780Z,7.00
2023-04-18T00:58:35.419Z,7.00
2023-04-18T01:00:37.891Z,7.10
2023-04-18T01:02:40.557Z,7.00
2023-04-18T01:04:43.523Z,7.00
2023-04-18T01:06:46.657Z,7.00
2023-04-18T01:08:49.350Z,7.00
2023-04-18T01:10:53.639Z,7.00
2023-04-18T01:13:10.503Z,7.00
2023-04-18T01:15:13.283Z,7.00
2023-04-18T01:17:15.737Z,7.00
2023-04-18T01:19:19.651Z,7.10
2023-04-18T01:21:22.291Z,7.10
2023-04-18T01:23:25.285Z,7.10
2023-04-18T01:25:27.855Z,7.10
2023-04-18T01:27:32.029Z,7.10
2023-04-18T01:29:37.270Z,7.10
2023-04-18T01:31:40.878Z,7.10
2023-04-18T01:33:43.544Z,7.20
2023-04-18T01:35:46.031Z,7.10
2023-04-18T01:37:48.477Z,7.20
2023-04-18T01:39:51.023Z,7.20
2023-04-18T01:41:54.584Z,7.10
2023-04-18T01:43:57.966Z,7.20
2023-04-18T01:46:01.659Z,7.10
2023-04-18T01:48:04.540Z,7.10
2023-04-18T01:50:09.097Z,7.10
2023-04-18T01:52:14.028Z,7.00
2023-04-18T01:54:17.733Z,7.00
2023-04-18T01:56:21.758Z,7.00
2023-04-18T01:58:26.504Z,7.00
2023-04-18T02:00:30.393Z,7.00
2023-04-18T02:02:34.321Z,7.00
2023-04-18T02:04:38.163Z,7.00
2023-04-18T02:06:41.606Z,7.00
2023-04-18T02:11:01.536Z,7.00
2023-04-18T02:15:20.236Z,7.00
2023-04-18T02:17:23.735Z,7.00
2023-04-18T02:19:28.289Z,7.00
2023-04-18T02:21:32.062Z,7.00
2023-04-18T02:23:35.944Z,6.90
2023-04-18T02:25:40.181Z,6.90
2023-04-18T02:27:43.528Z,6.90
2023-04-18T02:29:46.267Z,6.90
2023-04-18T02:31:48.896Z,6.90
2023-04-18T02:33:51.594Z,6.80
2023-04-18T02:35:55.977Z,6.80
2023-04-18T02:37:58.456Z,6.80
2023-04-18T02:40:01.053Z,6.80
2023-04-18T02:42:05.480Z,6.80
2023-04-18T02:44:08.143Z,6.80
2023-04-18T02:46:12.569Z,6.80
2023-04-18T02:48:15.194Z,6.80
2023-04-18T02:50:17.927Z,6.80
2023-04-18T02:52:20.516Z,6.80
2023-04-18T02:56:39.578Z,6.90
2023-04-18T02:58:44.030Z,6.90
2023-04-18T03:00:49.913Z,6.90
2023-04-18T03:02:54.440Z,6.90
2023-04-18T03:04:58.992Z,7.00
2023-04-18T03:07:01.793Z,6.90
2023-04-18T03:09:06.530Z,7.00
2023-04-18T03:11:10.906Z,6.90
2023-04-18T03:13:13.602Z,7.00
2023-04-18T03:15:16.200Z,7.00
2023-04-18T03:17:18.774Z,7.00
2023-04-18T03:19:23.182Z,7.10
2023-04-18T03:21:26.990Z,7.10
2023-04-18T03:23:29.648Z,7.10
2023-04-18T03:25:32.370Z,7.10
2023-04-18T03:27:34.961Z,7.10
2023-04-18T03:29:37.974Z,7.10
2023-04-18T03:31:41.018Z,7.10
2023-04-18T03:33:45.071Z,7.10
2023-04-18T03:35:47.711Z,7.20
2023-04-18T03:37:50.305Z,7.20
2023-04-18T03:39:54.782Z,7.10
2023-04-18T03:41:57.659Z,7.10
2023-04-18T03:44:00.253Z,7.10
2023-04-18T03:46:09.902Z,7.10
2023-04-18T03:48:13.004Z,7.00
2023-04-18T03:50:17.112Z,7.20
2023-04-18T03:52:20.135Z,7.20
2023-04-18T03:54:22.844Z,7.10
2023-04-18T03:56:25.665Z,7.20
2023-04-18T03:58:29.019Z,7.10
2023-04-18T04:00:31.726Z,7.10
2023-04-18T04:02:36.189Z,7.10
2023-04-18T04:04:38.930Z,7.10
2023-04-18T04:06:41.804Z,7.10
2023-04-18T04:08:44.285Z,7.10
2023-04-18T04:10:47.066Z,7.10
2023-04-18T04:12:49.915Z,7.10
2023-04-18T04:14:53.157Z,7.10
2023-04-18T04:16:56.104Z,7.10
2023-04-18T04:18:59.103Z,7.10
2023-04-18T04:21:03.520Z,7.10
2023-04-18T04:23:07.988Z,7.10
2023-04-18T04:25:12.947Z,7.10
2023-04-18T04:27:18.090Z,7.10
2023-04-18T04:29:21.124Z,7.10
2023-04-18T04:31:24.056Z,7.10
2023-04-18T04:33:28.212Z,7.10
2023-04-18T04:35:34.271Z,7.00
2023-04-18T04:37:38.047Z,7.10
2023-04-18T04:39:42.512Z,7.10
2023-04-18T04:41:47.010Z,7.10
2023-04-18T04:43:51.663Z,7.10
2023-04-18T04:45:56.992Z,7.10
2023-04-18T04:47:59.878Z,7.10
2023-04-18T04:50:03.453Z,7.10
2023-04-18T04:52:06.908Z,7.10
2023-04-18T04:54:09.896Z,7.20
2023-04-18T04:56:12.878Z,7.10
2023-04-18T04:58:15.662Z,7.20
2023-04-18T05:00:21.077Z,7.10
2023-04-18T05:02:24.200Z,7.20
2023-04-18T05:04:27.046Z,7.10
2023-04-18T05:06:29.614Z,7.20
2023-04-18T05:08:32.311Z,7.20
2023-04-18T05:10:36.434Z,7.20
2023-04-18T05:12:38.995Z,7.20
2023-04-18T05:14:41.472Z,7.30
2023-04-18T05:16:43.975Z,7.30
2023-04-18T05:21:03.014Z,7.30
2023-04-18T05:23:05.495Z,7.30
2023-04-18T05:25:08.602Z,7.30
2023-04-18T05:27:11.078Z,7.30
2023-04-18T05:29:13.550Z,7.40
2023-04-18T05:31:16.049Z,7.40
2023-04-18T05:33:18.691Z,7.40
2023-04-18T05:35:21.159Z,7.40
2023-04-18T05:37:23.617Z,7.40
2023-04-18T05:39:26.502Z,7.40
2023-04-18T05:41:29.043Z,7.50
2023-04-18T05:43:31.515Z,7.50
2023-04-18T05:45:34.045Z,7.50
2023-04-18T05:47:36.516Z,7.50
2023-04-18T05:49:38.981Z,7.50
2023-04-18T05:51:41.565Z,7.50
2023-04-18T05:53:44.053Z,7.50
2023-04-18T05:55:48.109Z,7.50
2023-04-18T05:57:50.686Z,7.50
2023-04-18T05:59:53.140Z,7.60
2023-04-18T06:01:55.945Z,7.50
2023-04-18T06:03:58.645Z,7.50
2023-04-18T06:06:01.245Z,7.60
2023-04-18T06:08:06.473Z,7.50
2023-04-18T06:10:12.256Z,7.60
2023-04-18T06:12:15.832Z,7.60
2023-04-18T06:14:19.707Z,7.60
2023-04-18T06:16:23.015Z,7.50
2023-04-18T06:18:26.169Z,7.60
2023-04-18T06:20:33.302Z,7.60
2023-04-18T06:22:40.865Z,7.60
2023-04-18T06:24:50.790Z,7.60
2023-04-18T06:27:00.900Z,7.60
2023-04-18T06:29:06.354Z,7.60
2023-04-18T06:31:13.406Z,7.60
2023-04-18T06:33:20.891Z,7.60
2023-04-18T06:35:25.249Z,7.60
2023-04-18T06:37:28.496Z,7.60
2023-04-18T06:39:32.219Z,7.60
2023-04-18T06:41:35.476Z,7.60
2023-04-18T06:45:56.019Z,7.60
2023-04-18T06:47:59.785Z,7.60
2023-04-18T06:50:02.513Z,7.70
2023-04-18T06:52:05.047Z,7.60
2023-04-18T06:54:07.534Z,7.60
2023-04-18T06:56:10.044Z,7.60
2023-04-18T06:58:13.133Z,7.60
2023-04-18T07:00:16.178Z,7.60
2023-04-18T07:02:18.823Z,7.70
2023-04-18T07:04:21.520Z,7.80
2023-04-18T07:06:24.201Z,7.70
2023-04-18T07:08:26.783Z,7.80
2023-04-18T07:10:29.719Z,7.90
2023-04-18T07:12:33.224Z,7.90
2023-04-18T07:14:35.727Z,7.90
2023-04-18T07:16:38.277Z,8.00
2023-04-18T07:18:40.767Z,7.90
2023-04-18T07:20:43.221Z,8.00
2023-04-18T07:22:47.562Z,8.00
2023-04-18T07:24:50.275Z,7.90
2023-04-18T07:26:54.913Z,7.90
2023-04-18T07:28:57.013Z,8.00
2023-04-18T07:31:00.650Z,8.10
2023-04-18T07:33:03.253Z,8.10
2023-04-18T07:35:06.217Z,8.10
2023-04-18T07:37:08.976Z,8.00
2023-04-18T07:39:11.456Z,8.00
2023-04-18T07:41:13.960Z,8.10
2023-04-18T07:43:16.448Z,8.10
2023-04-18T07:45:19.252Z,8.20
2023-04-18T07:47:22.746Z,8.20
2023-04-18T07:49:25.296Z,8.20
2023-04-18T07:51:29.830Z,8.20
2023-04-18T07:53:32.265Z,8.30
2023-04-18T07:55:34.900Z,8.30
2023-04-18T07:57:37.375Z,8.30
2023-04-18T07:59:40.334Z,8.30
2023-04-18T08:01:42.800Z,8.40
2023-04-18T08:03:46.215Z,8.50
2023-04-18T08:05:49.571Z,8.40
2023-04-18T08:07:52.293Z,8.30
2023-04-18T08:09:54.768Z,8.20
2023-04-18T08:11:58.574Z,8.30
2023-04-18T08:14:01.455Z,8.30
2023-04-18T08:16:04.020Z,8.20
2023-04-18T08:18:06.903Z,8.20
2023-04-18T08:20:10.224Z,8.20
2023-04-18T08:22:12.790Z,8.20
2023-04-18T08:24:15.371Z,8.20
2023-04-18T08:26:17.969Z,8.30
2023-04-18T08:28:20.531Z,8.20
2023-04-18T08:30:23.386Z,8.30
2023-04-18T08:32:26.175Z,8.30
2023-04-18T08:34:28.856Z,8.40
2023-04-18T08:36:31.439Z,8.40
2023-04-18T08:38:33.903Z,8.60
2023-04-18T08:40:36.895Z,8.60
2023-04-18T08:42:41.381Z,8.60
2023-04-18T08:44:44.620Z,8.60
2023-04-18T08:46:47.139Z,8.70
2023-04-18T08:48:50.679Z,8.70
2023-04-18T08:50:55.261Z,8.60
2023-04-18T08:52:58.413Z,8.60
2023-04-18T08:55:02.975Z,8.70
2023-04-18T08:57:05.923Z,8.70
2023-04-18T08:59:09.031Z,8.80
2023-04-18T09:03:39.518Z,8.80
2023-04-18T09:05:42.298Z,8.80
2023-04-18T09:07:45.061Z,8.80
2023-04-18T09:09:48.135Z,8.80
2023-04-18T09:11:52.581Z,8.90
2023-04-18T09:13:56.564Z,8.90
2023-04-18T09:16:00.257Z,8.90
2023-04-18T09:18:03.391Z,9.00
2023-04-18T09:20:09.823Z,8.90
2023-04-18T09:22:13.032Z,8.90
2023-04-18T09:24:20.506Z,8.90
2023-04-18T09:26:30.097Z,9.00
2023-04-18T09:28:33.214Z,9.10
2023-04-18T09:30:37.702Z,9.20
2023-04-18T09:32:40.356Z,9.20
2023-04-18T09:34:42.898Z,9.30
2023-04-18T09:36:45.481Z,9.40
2023-04-18T09:38:48.455Z,9.50
2023-04-18T09:40:54.857Z,9.50
2023-04-18T09:42:57.448Z,9.70
2023-04-18T09:45:04.521Z,9.60
2023-04-18T09:47:07.488Z,9.60
2023-04-18T09:49:11.126Z,9.50
2023-04-18T09:51:15.382Z,9.60
2023-04-18T09:53:20.667Z,9.80
2023-04-18T09:55:23.558Z,9.80
2023-04-18T09:57:30.352Z,9.80
2023-04-18T09:59:35.636Z,9.70
2023-04-18T10:01:39.495Z,9.80
2023-04-18T10:03:43.882Z,9.80
2023-04-18T10:05:47.285Z,9.80
2023-04-18T10:07:50.437Z,9.80
2023-04-18T10:09:53.052Z,9.80
2023-04-18T10:11:56.910Z,9.80
2023-04-18T10:14:01.312Z,9.80
2023-04-18T10:16:04.136Z,9.80
2023-04-18T10:18:08.700Z,9.80
2023-04-18T10:20:13.873Z,9.80
2023-04-18T10:22:18.212Z,9.90
2023-04-18T10:24:38.469Z,10.00
2023-04-18T10:26:46.947Z,10.20
2023-04-18T10:28:50.468Z,10.20
2023-04-18T10:30:57.986Z,10.10
2023-04-18T10:33:02.441Z,10.10
2023-04-18T10:35:05.937Z,10.20
2023-04-18T10:37:08.494Z,10.20
2023-04-18T10:39:20.743Z,10.30
2023-04-18T10:41:24.075Z,10.40
2023-04-18T10:46:03.961Z,10.40
2023-04-18T10:48:26.982Z,10.50
2023-04-18T10:50:29.661Z,10.60
2023-04-18T10:52:32.265Z,10.60
2023-04-18T10:54:37.017Z,10.60
2023-04-18T10:56:39.612Z,10.70
2023-04-18T10:58:43.901Z,10.80
2023-04-18T11:00:47.117Z,10.80
2023-04-18T11:02:51.128Z,10.60
2023-04-18T11:04:54.714Z,10.70
2023-04-18T11:06:57.889Z,10.90
2023-04-18T11:09:09.750Z,11.00
2023-04-18T11:11:12.646Z,10.80
2023-04-18T11:13:15.166Z,10.80
2023-04-18T11:15:20.261Z,11.00
2023-04-18T11:17:23.970Z,11.00
2023-04-18T11:19:26.676Z,11.00
2023-04-18T11:21:30.733Z,11.00
2023-04-18T11:23:33.515Z,10.90
2023-04-18T11:25:36.370Z,11.10
2023-04-18T11:27:40.808Z,11.10
2023-04-18T11:29:43.265Z,11.20
2023-04-18T11:31:51.151Z,11.30
2023-04-18T11:33:55.484Z,11.10
2023-04-18T11:35:58.602Z,11.00
2023-04-18T11:38:01.165Z,10.80
2023-04-18T11:40:04.230Z,11.00
2023-04-18T11:42:06.752Z,11.00
2023-04-18T11:44:09.264Z,11.20
2023-04-18T11:46:12.070Z,11.30
2023-04-18T11:48:14.522Z,11.10
2023-04-18T11:50:17.058Z,11.20
2023-04-18T11:52:19.727Z,11.20
2023-04-18T11:54:38.374Z,11.20
2023-04-18T11:56:46.764Z,11.30
2023-04-18T11:58:49.239Z,11.50
2023-04-18T12:00:51.927Z,11.50
2023-04-18T12:02:54.891Z,11.50
2023-04-18T12:04:59.482Z,11.40
2023-04-18T12:07:03.016Z,11.40
2023-04-18T12:09:05.706Z,11.60
2023-04-18T12:11:08.236Z,11.50
2023-04-18T12:13:10.793Z,11.60
2023-04-18T12:15:15.730Z,11.60
2023-04-18T12:17:18.292Z,11.60
2023-04-18T12:19:21.052Z,11.70
2023-04-18T12:21:25.439Z,11.90
2023-04-18T12:23:31.903Z,11.90
2023-04-18T12:25:34.742Z,11.80
2023-04-18T12:27:57.435Z,12.00
2023-04-18T12:29:59.890Z,12.00
2023-04-18T12:32:02.398Z,12.10
2023-04-18T12:34:04.989Z,12.10
2023-04-18T12:36:08.086Z,12.10
2023-04-18T12:38:10.555Z,12.20
2023-04-18T12:40:13.587Z,12.20
2023-04-18T12:42:16.177Z,12.40
2023-04-18T12:44:18.685Z,12.60
2023-04-18T12:46:21.219Z,12.90
2023-04-18T12:48:23.920Z,13.30
2023-04-18T12:50:26.705Z,13.60
2023-04-18T12:52:29.701Z,13.70
2023-04-18T12:54:32.239Z,14.00
2023-04-18T12:56:34.891Z,14.20
2023-04-18T12:58:37.396Z,14.40
2023-04-18T13:00:40.244Z,14.40
2023-04-18T13:02:43.827Z,14.30
2023-04-18T13:04:46.591Z,14.20
2023-04-18T13:06:49.353Z,14.10
2023-04-18T13:08:51.860Z,14.10
2023-04-18T13:10:54.748Z,14.20
2023-04-18T13:12:57.257Z,14.00
2023-04-18T13:14:59.715Z,13.60
2023-04-18T13:17:02.209Z,13.50
2023-04-18T13:19:04.966Z,13.60
2023-04-18T13:21:07.719Z,13.50
2023-04-18T13:23:10.235Z,13.40
2023-04-18T13:25:12.737Z,13.30
2023-04-18T13:27:16.851Z,13.30
2023-04-18T13:31:43.776Z,13.30
2023-04-18T13:33:46.301Z,13.20
2023-04-18T13:35:49.494Z,13.20
2023-04-18T13:37:52.218Z,13.10
2023-04-18T13:39:54.680Z,13.30
2023-04-18T13:41:57.165Z,13.40
2023-04-18T13:43:59.695Z,13.50
2023-04-18T13:46:02.209Z,13.50
2023-04-18T13:48:06.132Z,13.60
2023-04-18T13:50:10.423Z,13.50
2023-04-18T13:52:12.934Z,13.30
2023-04-18T13:54:15.946Z,13.30
2023-04-18T13:56:18.446Z,13.20
2023-04-18T13:58:21.153Z,13.30
2023-04-18T14:00:23.673Z,13.40
2023-04-18T14:02:26.356Z,13.40
2023-04-18T14:04:31.054Z,13.30
2023-04-18T14:06:33.628Z,13.30
2023-04-18T14:08:36.092Z,13.20
2023-04-18T14:10:38.671Z,13.10
2023-04-18T14:12:41.161Z,13.20
2023-04-18T14:14:43.664Z,13.20
2023-04-18T14:16:46.199Z,13.30
2023-04-18T14:18:48.688Z,13.30
2023-04-18T14:20:51.257Z,13.30
2023-04-18T14:22:53.773Z,13.40
2023-04-18T14:24:56.265Z,13.40
2023-04-18T14:26:58.725Z,13.30
2023-04-18T14:29:02.344Z,13.20
2023-04-18T14:31:05.953Z,13.20
2023-04-18T14:33:09.761Z,13.30
2023-04-18T14:35:12.326Z,13.20
2023-04-18T14:37:15.769Z,13.30
2023-04-18T14:39:19.608Z,13.20
2023-04-18T14:41:22.138Z,13.20
2023-04-18T14:43:25.194Z,13.30
2023-04-18T14:45:27.663Z,13.30
2023-04-18T14:47:32.054Z,13.30
2023-04-18T14:49:34.543Z,13.30
2023-04-18T14:51:37.025Z,13.40
2023-04-18T14:53:39.604Z,13.40
2023-04-18T14:55:42.122Z,13.50
2023-04-18T14:57:45.314Z,13.40
2023-04-18T14:59:47.823Z,13.40
2023-04-18T15:01:50.355Z,13.30
2023-04-18T15:03:53.046Z,13.10
2023-04-18T15:05:56.313Z,13.20
2023-04-18T15:07:58.785Z,13.30
2023-04-18T15:10:01.250Z,13.50
2023-04-18T15:12:04.665Z,13.40
2023-04-18T15:14:08.556Z,13.40
2023-04-18T15:16:11.090Z,13.30
2023-04-18T15:18:13.737Z,13.10
2023-04-18T15:20:16.230Z,13.00
2023-04-18T15:22:18.718Z,13.10
2023-04-18T15:24:21.221Z,13.10
2023-04-18T15:26:24.009Z,13.40
2023-04-18T15:28:26.530Z,13.60
2023-04-18T15:30:29.020Z,13.50
2023-04-18T15:32:32.035Z,13.60
2023-04-18T15:34:34.538Z,13.60
2023-04-18T15:36:37.450Z,13.60
2023-04-18T15:38:39.933Z,13.60
2023-04-18T15:40:43.113Z,13.80
2023-04-18T15:42:45.747Z,13.70
2023-04-18T15:44:49.030Z,13.50
2023-04-18T15:46:51.539Z,13.30
2023-04-18T15:48:54.072Z,13.30
2023-04-18T15:50:56.626Z,13.50
2023-04-18T15:52:59.099Z,13.60
2023-04-18T15:55:01.586Z,13.60
2023-04-18T15:57:04.074Z,13.70
2023-04-18T15:59:06.685Z,13.80
2023-04-18T16:01:09.190Z,13.90
2023-04-18T16:03:11.906Z,13.90
2023-04-18T16:05:14.679Z,13.90
2023-04-18T16:07:17.285Z,13.80
2023-04-18T16:09:19.761Z,13.90
2023-04-18T16:11:24.105Z,14.00
2023-04-18T16:13:26.576Z,13.90
2023-04-18T16:15:30.487Z,14.00
2023-04-18T16:17:33.153Z,13.90
2023-04-18T16:19:37.702Z,13.90
2023-04-18T16:21:40.195Z,13.90
2023-04-18T16:23:43.093Z,13.80
2023-04-18T16:25:45.660Z,13.60
2023-04-18T16:27:48.139Z,13.50
2023-04-18T16:29:50.906Z,13.60
2023-04-18T16:31:53.447Z,13.60
2023-04-18T16:33:56.169Z,13.30
2023-04-18T16:36:01.884Z,13.30
2023-04-18T16:40:20.065Z,13.30
2023-04-18T16:42:22.897Z,13.30
2023-04-18T16:44:25.548Z,13.30
2023-04-18T16:46:30.646Z,13.40
2023-04-18T16:48:33.211Z,13.30
2023-04-18T16:50:35.695Z,13.20
2023-04-18T16:52:38.155Z,13.20
2023-04-18T16:54:40.915Z,13.20
2023-04-18T16:56:44.224Z,13.10
2023-04-18T16:58:46.770Z,13.10
2023-04-18T17:00:49.413Z,13.20
2023-04-18T17:02:52.585Z,13.20
2023-04-18T17:04:55.299Z,13.30
2023-04-18T17:06:57.906Z,13.20
2023-04-18T17:09:00.768Z,13.20
2023-04-18T17:11:03.540Z,13.00
2023-04-18T17:13:06.045Z,12.90
2023-04-18T17:15:08.965Z,12.90
2023-04-18T17:17:11.448Z,12.80
2023-04-18T17:19:14.552Z,12.80
2023-04-18T17:21:17.276Z,12.90
2023-04-18T17:23:20.945Z,12.70
2023-04-18T17:25:23.493Z,12.70
2023-04-18T17:27:25.998Z,12.80
2023-04-18T17:29:28.501Z,12.70
2023-04-18T17:31:31.290Z,12.70
2023-04-18T17:33:33.822Z,12.70
2023-04-18T17:35:36.438Z,12.60
2023-04-18T17:37:38.884Z,12.60
2023-04-18T17:39:41.479Z,12.60
2023-04-18T17:41:44.803Z,12.60
2023-04-18T17:43:47.597Z,12.40
2023-04-18T17:45:50.126Z,12.40
2023-04-18T17:47:53.289Z,12.30
2023-04-18T17:49:55.899Z,12.20
2023-04-18T17:51:58.321Z,12.20
2023-04-18T17:54:00.847Z,12.00
2023-04-18T17:56:03.590Z,12.00
2023-04-18T17:58:06.193Z,12.00
2023-04-18T18:00:12.903Z,11.90
2023-04-18T18:02:16.062Z,11.80
2023-04-18T18:04:19.732Z,11.80
2023-04-18T18:06:22.418Z,11.80
2023-04-18T18:08:25.196Z,11.70
2023-04-18T18:10:27.748Z,11.60
2023-04-18T18:12:31.695Z,11.60
2023-04-18T18:14:34.402Z,11.50
2023-04-18T18:16:38.515Z,11.50
2023-04-18T18:18:41.038Z,11.50
2023-04-18T18:20:43.694Z,11.40
2023-04-18T18:22:46.668Z,11.40
2023-04-18T18:24:49.196Z,11.30
2023-04-18T18:26:51.854Z,11.30
2023-04-18T18:28:54.616Z,11.20
2023-04-18T18:30:57.405Z,11.10
2023-04-18T18:33:01.065Z,11.20
2023-04-18T18:35:05.273Z,11.10
2023-04-18T18:37:07.807Z,11.10
2023-04-18T18:39:10.985Z,11.10
2023-04-18T18:41:13.658Z,11.00
2023-04-18T18:43:16.195Z,10.90
2023-04-18T18:45:20.524Z,10.90
2023-04-18T18:47:23.080Z,10.90
2023-04-18T18:49:26.241Z,10.90
2023-04-18T18:51:28.933Z,10.80
2023-04-18T18:53:31.585Z,10.80
2023-04-18T18:55:34.164Z,10.70
2023-04-18T18:57:37.551Z,10.70
2023-04-18T18:59:40.958Z,10.70
2023-04-18T19:01:43.480Z,10.60
2023-04-18T19:03:46.302Z,10.60
2023-04-18T19:05:49.080Z,10.60
2023-04-18T19:07:51.675Z,10.50
2023-04-18T19:09:54.756Z,10.50
2023-04-18T19:11:57.900Z,10.40
2023-04-18T19:14:00.511Z,10.40
2023-04-18T19:16:03.421Z,10.40
2023-04-18T19:18:06.333Z,10.40
2023-04-18T19:20:09.810Z,10.40
2023-04-18T19:22:12.492Z,10.30
2023-04-18T19:24:15.163Z,10.30
2023-04-18T19:26:18.257Z,10.20
2023-04-18T19:28:22.297Z,10.20
2023-04-18T19:30:25.153Z,10.10
2023-04-18T19:32:27.824Z,10.10
2023-04-18T19:34:30.392Z,10.10
2023-04-18T19:36:32.904Z,10.10
2023-04-18T19:38:35.435Z,10.10
2023-04-18T19:40:38.197Z,10.10
2023-04-18T19:42:40.739Z,10.10
2023-04-18T19:44:43.810Z,10.00
2023-04-18T19:46:48.993Z,10.00
2023-04-18T19:48:52.157Z,9.90
2023-04-18T19:50:55.865Z,10.00
2023-04-18T19:52:58.521Z,9.90
2023-04-18T19:55:01.011Z,9.90
2023-04-18T19:57:05.785Z,9.90
2023-04-18T19:59:08.401Z,9.90
2023-04-18T20:01:11.592Z,9.90
2023-04-18T20:03:16.399Z,9.90
2023-04-18T20:05:19.745Z,9.90
2023-04-18T20:07:24.207Z,9.90
2023-04-18T20:09:26.999Z,9.90
2023-04-18T20:11:29.669Z,9.90
2023-04-18T20:13:33.318Z,9.90
2023-04-18T20:15:36.680Z,9.80
2023-04-18T20:17:40.544Z,9.80
2023-04-18T20:19:46.051Z,9.80
2023-04-18T20:21:49.882Z,9.80
2023-04-18T20:23:54.319Z,9.70
2023-04-18T20:25:58.189Z,9.70
2023-04-18T20:28:03.238Z,9.70
2023-04-18T20:30:09.141Z,9.70
2023-04-18T20:32:13.687Z,9.70
2023-04-18T20:34:17.740Z,9.60
2023-04-18T20:38:40.064Z,9.60
2023-04-18T20:43:02.524Z,9.60
2023-04-18T20:45:10.773Z,9.70
2023-04-18T20:47:15.685Z,9.70
2023-04-18T20:49:19.762Z,9.70
2023-04-18T20:51:23.885Z,9.70
2023-04-18T20:53:29.064Z,9.80
2023-04-18T20:55:33.030Z,9.80
2023-04-18T20:57:36.718Z,9.90
2023-04-18T20:59:39.952Z,9.90
2023-04-18T21:01:42.770Z,10.00
2023-04-18T21:03:45.498Z,10.10
2023-04-18T21:05:48.431Z,10.10
2023-04-18T21:07:50.907Z,10.20
2023-04-18T21:09:53.389Z,10.30
2023-04-18T21:11:57.672Z,10.30
2023-04-18T21:14:00.190Z,10.30
2023-04-18T21:16:04.637Z,10.40
2023-04-18T21:18:07.143Z,10.40
2023-04-18T21:20:10.309Z,10.40
2023-04-18T21:22:13.783Z,10.40
2023-04-18T21:24:16.467Z,10.40
2023-04-18T21:26:19.171Z,10.40
2023-04-18T21:28:21.713Z,10.40
2023-04-18T21:30:24.211Z,10.40
2023-04-18T21:32:26.751Z,10.50
2023-04-18T21:34:29.298Z,10.50
2023-04-18T21:36:31.911Z,10.50
2023-04-18T21:38:34.425Z,10.50
2023-04-18T21:40:37.578Z,10.50
2023-04-18T21:42:40.152Z,10.60
2023-04-18T21:44:42.817Z,10.50
2023-04-18T21:46:45.343Z,10.60
2023-04-18T21:48:48.561Z,10.60
2023-04-18T21:50:54.520Z,10.60
2023-04-18T21:52:56.983Z,10.60
2023-04-18T21:54:59.496Z,10.70
2023-04-18T21:57:02.429Z,10.70
2023-04-18T21:59:04.916Z,10.70
2023-04-18T22:01:07.482Z,10.70
2023-04-18T22:03:10.598Z,10.80
2023-04-18T22:05:13.301Z,10.80
2023-04-18T22:07:17.568Z,10.80
2023-04-18T22:09:20.147Z,10.80
2023-04-18T22:11:23.545Z,10.80
2023-04-18T22:13:29.255Z,10.90
2023-04-18T22:15:32.810Z,10.90
2023-04-18T22:17:37.155Z,10.90
2023-04-18T22:19:41.001Z,10.90
2023-04-18T22:21:43.509Z,10.90
2023-04-18T22:23:46.128Z,10.90
2023-04-18T22:25:48.665Z,10.90
2023-04-18T22:27:51.159Z,10.90
2023-04-18T22:29:53.635Z,10.90
2023-04-18T22:31:56.336Z,11.00
2023-04-18T22:33:59.397Z,11.00
2023-04-18T22:36:01.910Z,11.00
2023-04-18T22:38:04.368Z,11.00
2023-04-18T22:40:08.958Z,11.10
2023-04-18T22:42:11.476Z,11.10
2023-04-18T22:44:14.288Z,11.10
2023-04-18T22:46:17.058Z,11.10
2023-04-18T22:48:20.406Z,11.10
2023-04-18T22:52:39.368Z,11.10
2023-04-18T22:54:42.114Z,11.10
2023-04-18T22:56:44.835Z,11.10
2023-04-18T22:58:47.564Z,11.10
2023-04-18T23:00:50.038Z,11.10
2023-04-18T23:02:52.902Z,11.10
2023-04-18T23:04:57.792Z,11.10
2023-04-18T23:07:00.294Z,11.10
2023-04-18T23:09:02.941Z,11.00
2023-04-18T23:11:05.464Z,11.10
2023-04-18T23:15:26.417Z,11.00
2023-04-18T23:17:28.892Z,11.00
2023-04-18T23:19:31.542Z,11.00
2023-04-18T23:21:34.192Z,11.00
2023-04-18T23:23:36.690Z,11.00
2023-04-18T23:25:39.170Z,10.90
2023-04-18T23:27:41.756Z,11.00
2023-04-18T23:29:46.306Z,10.90
2023-04-18T23:31:48.865Z,10.90
2023-04-18T23:33:51.459Z,10.90
2023-04-18T23:35:53.914Z,10.90
2023-04-18T23:37:56.530Z,10.90
2023-04-18T23:40:00.038Z,10.90
2023-04-18T23:42:02.536Z,10.90
2023-04-18T23:44:05.367Z,10.90
2023-04-18T23:46:07.873Z,10.90
2023-04-18T23:48:10.746Z,10.90
2023-04-18T23:50:13.401Z,10.90
2023-04-18T23:52:15.864Z,10.90
2023-04-18T23:54:18.499Z,10.80
2023-04-18T23:56:21.156Z,10.90
2023-04-18T23:58:25.702Z,10.80
